createdAt,value
2017-11-23T00:00:29.519Z,10.82
2017-11-23T00:02:56.971Z,9.40
2017-11-23T00:05:25.176Z,8.70
2017-11-23T00:07:52.634Z,9.45
2017-11-23T00:10:20.837Z,9.57
2017-11-23T00:12:48.296Z,7.43
2017-11-23T00:15:16.488Z,6.82
2017-11-23T00:17:44.709Z,9.18
2017-11-23T00:20:12.178Z,8.90
2017-11-23T00:22:39.620Z,8.15
2017-11-23T00:25:07.330Z,8.45
2017-11-23T00:27:34.780Z,9.27
2017-11-23T00:30:02.993Z,6.70
2017-11-23T00:32:30.425Z,7.20
2017-11-23T00:34:57.870Z,7.40
2017-11-23T00:37:25.309Z,8.32
2017-11-23T00:39:53.537Z,7.03
2017-11-23T00:42:21.073Z,7.50
2017-11-23T00:44:49.303Z,7.25
2017-11-23T00:47:16.756Z,6.90
2017-11-23T00:49:44.196Z,7.28
2017-11-23T00:52:11.645Z,6.22
2017-11-23T00:54:39.085Z,7.43
2017-11-23T00:57:06.537Z,7.62
2017-11-23T00:59:34.753Z,7.45
2017-11-23T01:02:02.198Z,6.65
2017-11-23T01:04:31.133Z,6.50
2017-11-23T01:06:58.584Z,7.95
2017-11-23T01:09:26.932Z,7.25
2017-11-23T01:11:54.359Z,7.10
2017-11-23T01:14:22.578Z,7.00
2017-11-23T01:16:50.017Z,7.12
2017-11-23T01:19:18.229Z,6.35
2017-11-23T01:21:48.464Z,7.03
2017-11-23T01:24:15.921Z,8.68
2017-11-23T01:26:44.121Z,6.43
2017-11-23T01:29:12.334Z,6.30
2017-11-23T01:31:39.769Z,7.78
2017-11-23T01:34:07.201Z,6.90
2017-11-23T01:36:36.512Z,7.22
2017-11-23T01:39:03.948Z,7.18
2017-11-23T01:41:32.197Z,7.10
2017-11-23T01:43:59.621Z,6.97
2017-11-23T01:46:27.833Z,7.32
2017-11-23T01:48:55.293Z,7.57
2017-11-23T01:51:22.721Z,6.03
2017-11-23T01:53:50.174Z,8.85
2017-11-23T01:56:17.630Z,6.97
2017-11-23T01:58:45.065Z,7.15
2017-11-23T02:01:12.521Z,7.35
2017-11-23T02:03:39.978Z,6.37
2017-11-23T02:06:07.416Z,7.07
2017-11-23T02:08:35.637Z,6.82
2017-11-23T02:11:03.115Z,7.18
2017-11-23T02:13:30.540Z,8.50
2017-11-23T02:15:58.840Z,6.72
2017-11-23T02:18:27.063Z,6.72
2017-11-23T02:20:54.502Z,6.55
2017-11-23T02:23:22.726Z,6.22
2017-11-23T02:25:50.166Z,6.78
2017-11-23T02:28:18.384Z,6.47
2017-11-23T02:30:46.829Z,7.30
2017-11-23T02:33:14.294Z,7.35
2017-11-23T02:35:41.734Z,6.30
2017-11-23T02:38:09.158Z,5.80
2017-11-23T02:40:36.614Z,7.40
2017-11-23T02:43:04.058Z,6.90
2017-11-23T02:45:31.508Z,7.50
2017-11-23T02:47:59.698Z,7.07
2017-11-23T02:50:27.926Z,6.55
2017-11-23T02:52:55.344Z,6.90
2017-11-23T02:55:22.846Z,6.10
2017-11-23T02:57:51.255Z,8.52
2017-11-23T03:00:19.662Z,7.00
2017-11-23T03:02:47.085Z,5.82
2017-11-23T03:05:15.157Z,7.25
2017-11-23T03:07:42.636Z,6.10
2017-11-23T03:10:10.074Z,6.03
2017-11-23T03:12:37.512Z,7.87
2017-11-23T03:15:05.731Z,6.70
2017-11-23T03:17:33.416Z,6.75
2017-11-23T03:20:00.855Z,6.20
2017-11-23T03:22:29.082Z,6.15
2017-11-23T03:24:57.418Z,6.25
2017-11-23T03:27:24.882Z,6.57
2017-11-23T03:29:52.332Z,5.57
2017-11-23T03:32:19.779Z,5.80
2017-11-23T03:34:48.017Z,5.80
2017-11-23T03:37:15.464Z,5.55
2017-11-23T03:39:42.913Z,5.70
2017-11-23T03:42:11.108Z,5.40
2017-11-23T03:44:39.323Z,5.90
2017-11-23T03:47:06.788Z,6.60
2017-11-23T03:49:34.988Z,6.37
2017-11-23T03:52:03.080Z,6.22
2017-11-23T03:54:30.528Z,5.70
2017-11-23T03:56:58.748Z,6.18
2017-11-23T03:59:26.195Z,5.75
2017-11-23T04:01:54.420Z,5.72
2017-11-23T04:04:21.854Z,5.50
2017-11-23T04:06:49.407Z,5.65
2017-11-23T04:09:16.847Z,7.03
2017-11-23T04:11:44.292Z,5.55
2017-11-23T04:14:12.484Z,5.75
2017-11-23T04:16:40.700Z,6.45
2017-11-23T04:19:08.126Z,4.62
2017-11-23T04:21:35.662Z,6.03
2017-11-23T04:24:03.239Z,6.18
2017-11-23T04:26:30.697Z,7.32
2017-11-23T04:28:58.120Z,5.43
2017-11-23T04:31:25.565Z,6.15
2017-11-23T04:33:53.001Z,6.28
2017-11-23T04:36:21.198Z,6.43
2017-11-23T04:38:48.700Z,5.93
2017-11-23T04:41:16.137Z,6.18
2017-11-23T04:43:44.392Z,6.35
2017-11-23T04:46:11.824Z,5.95
2017-11-23T04:48:39.271Z,6.53
2017-11-23T04:51:07.475Z,5.43
2017-11-23T04:53:35.694Z,5.37
2017-11-23T04:56:03.117Z,5.50
2017-11-23T04:58:30.576Z,6.55
2017-11-23T05:00:58.006Z,5.80
2017-11-23T05:03:25.458Z,6.40
2017-11-23T05:05:53.665Z,5.82
2017-11-23T05:08:21.216Z,7.30
2017-11-23T05:10:49.436Z,5.62
2017-11-23T05:13:16.861Z,5.85
2017-11-23T05:15:44.321Z,5.85
2017-11-23T05:18:11.749Z,6.20
2017-11-23T05:20:39.969Z,5.35
2017-11-23T05:23:07.488Z,5.72
2017-11-23T05:25:34.940Z,7.65
2017-11-23T05:28:02.372Z,6.70
2017-11-23T05:30:29.820Z,6.50
2017-11-23T05:32:57.290Z,5.47
2017-11-23T05:35:24.783Z,5.87
2017-11-23T05:37:53.075Z,7.35
2017-11-23T05:40:21.307Z,6.15
2017-11-23T05:42:48.728Z,5.90
2017-11-23T05:45:16.193Z,7.28
2017-11-23T05:47:43.630Z,6.87
2017-11-23T05:50:11.073Z,6.30
2017-11-23T05:52:39.270Z,6.75
2017-11-23T05:55:06.761Z,6.55
2017-11-23T05:57:34.197Z,7.50
2017-11-23T06:00:01.648Z,6.85
2017-11-23T06:02:29.096Z,6.62
2017-11-23T06:04:56.584Z,7.18
2017-11-23T06:07:24.825Z,6.68
2017-11-23T06:09:53.688Z,7.80
2017-11-23T06:12:21.146Z,7.45
2017-11-23T06:14:48.608Z,6.95
2017-11-23T06:17:16.044Z,6.45
2017-11-23T06:19:44.249Z,6.62
2017-11-23T06:22:12.466Z,7.65
2017-11-23T06:24:39.905Z,7.07
2017-11-23T06:27:07.357Z,6.85
2017-11-23T06:29:34.792Z,6.85
2017-11-23T06:32:02.260Z,7.18
2017-11-23T06:34:29.734Z,6.60
2017-11-23T06:36:57.335Z,7.00
2017-11-23T06:39:24.796Z,7.07
2017-11-23T06:41:52.229Z,6.60
2017-11-23T06:44:19.689Z,6.70
2017-11-23T06:46:47.126Z,5.40
2017-11-23T06:49:14.584Z,5.85
2017-11-23T06:51:42.051Z,6.72
2017-11-23T06:54:10.283Z,5.45
2017-11-23T06:56:37.724Z,6.00
2017-11-23T06:59:05.198Z,6.18
2017-11-23T07:01:32.642Z,5.70
2017-11-23T07:04:00.101Z,6.05
2017-11-23T07:06:27.531Z,5.37
2017-11-23T07:08:55.003Z,6.15
2017-11-23T07:11:22.419Z,6.30
2017-11-23T07:13:49.881Z,6.93
2017-11-23T07:16:17.349Z,5.65
2017-11-23T07:18:44.816Z,6.82
2017-11-23T07:21:12.284Z,6.22
2017-11-23T07:23:39.850Z,5.45
2017-11-23T07:26:08.044Z,5.45
2017-11-23T07:28:35.479Z,6.60
2017-11-23T07:31:02.914Z,6.40
2017-11-23T07:33:30.369Z,6.20
2017-11-23T07:35:57.831Z,6.12
2017-11-23T07:38:25.268Z,6.35
2017-11-23T07:40:52.700Z,7.22
2017-11-23T07:43:20.160Z,7.15
2017-11-23T07:45:47.592Z,5.40
2017-11-23T07:48:15.061Z,6.68
2017-11-23T07:50:43.122Z,6.55
2017-11-23T07:53:10.578Z,5.80
2017-11-23T07:55:38.027Z,5.53
2017-11-23T07:58:06.240Z,6.03
2017-11-23T08:00:33.669Z,6.07
2017-11-23T08:03:01.729Z,6.68
2017-11-23T08:05:29.165Z,7.05
2017-11-23T08:07:57.385Z,6.25
2017-11-23T08:10:24.840Z,7.05
2017-11-23T08:12:52.268Z,5.60
2017-11-23T08:15:19.720Z,7.32
2017-11-23T08:17:47.144Z,6.50
2017-11-23T08:20:15.400Z,6.75
2017-11-23T08:22:42.844Z,7.22
2017-11-23T08:25:10.296Z,8.05
2017-11-23T08:27:38.525Z,7.50
2017-11-23T08:30:05.976Z,7.35
2017-11-23T08:32:33.419Z,8.93
2017-11-23T08:35:00.936Z,8.88
2017-11-23T08:37:28.390Z,8.25
2017-11-23T08:39:56.576Z,7.95
2017-11-23T08:42:24.815Z,7.47
2017-11-23T08:44:52.253Z,8.57
2017-11-23T08:47:19.726Z,8.50
2017-11-23T08:49:47.156Z,7.85
2017-11-23T08:52:14.625Z,6.95
2017-11-23T08:54:47.597Z,6.85
2017-11-23T08:57:15.263Z,7.25
2017-11-23T08:59:43.470Z,6.62
2017-11-23T09:02:12.722Z,6.53
2017-11-23T09:04:40.185Z,6.80
2017-11-23T09:07:07.615Z,6.55
2017-11-23T09:09:35.095Z,5.93
2017-11-23T09:12:02.545Z,7.25
2017-11-23T09:14:30.752Z,6.45
2017-11-23T09:16:58.205Z,6.20
2017-11-23T09:19:26.436Z,6.20
2017-11-23T09:21:53.906Z,6.25
2017-11-23T09:24:21.340Z,6.25
2017-11-23T09:26:49.579Z,5.53
2017-11-23T09:29:17.013Z,6.50
2017-11-23T09:31:45.244Z,5.40
2017-11-23T09:34:12.706Z,6.40
2017-11-23T09:36:40.165Z,6.45
2017-11-23T09:39:08.384Z,5.78
2017-11-23T09:41:35.849Z,5.60
2017-11-23T09:44:03.286Z,5.80
2017-11-23T09:46:30.729Z,6.25
2017-11-23T09:48:58.200Z,6.30
2017-11-23T09:51:25.629Z,6.75
2017-11-23T09:53:53.852Z,7.78
2017-11-23T09:56:21.314Z,5.95
2017-11-23T09:58:48.787Z,5.87
2017-11-23T10:01:16.231Z,10.55
2017-11-23T10:03:43.694Z,6.97
2017-11-23T10:06:11.141Z,6.80
2017-11-23T10:08:38.606Z,7.00
2017-11-23T10:11:06.064Z,5.97
2017-11-23T10:13:33.530Z,6.93
2017-11-23T10:16:01.020Z,6.53
2017-11-23T10:18:28.451Z,6.95
2017-11-23T10:20:55.915Z,6.25
2017-11-23T10:23:23.362Z,6.72
2017-11-23T10:25:50.865Z,7.18
2017-11-23T10:28:18.306Z,7.55
2017-11-23T10:30:45.765Z,5.93
2017-11-23T10:33:13.305Z,5.18
2017-11-23T10:35:41.735Z,6.35
2017-11-23T10:38:09.953Z,6.40
2017-11-23T10:40:37.417Z,8.68
2017-11-23T10:43:04.882Z,8.25
2017-11-23T10:45:32.348Z,7.05
2017-11-23T10:47:59.824Z,6.15
2017-11-23T10:50:27.292Z,6.70
2017-11-23T10:52:55.541Z,6.83
2017-11-23T10:55:22.992Z,6.80
2017-11-23T10:57:50.457Z,6.63
2017-11-23T11:00:17.904Z,6.20
2017-11-23T11:02:46.137Z,7.30
2017-11-23T11:05:13.589Z,7.63
2017-11-23T11:07:41.042Z,7.60
2017-11-23T11:10:09.291Z,7.23
2017-11-23T11:12:37.542Z,7.70
2017-11-23T11:15:05.015Z,16.80
2017-11-23T11:17:33.314Z,7.20
2017-11-23T11:20:01.532Z,12.93
2017-11-23T11:22:28.966Z,7.90
2017-11-23T11:24:56.438Z,7.00
2017-11-23T11:27:24.657Z,8.00
2017-11-23T11:29:52.132Z,7.50
2017-11-23T11:32:19.646Z,7.47
2017-11-23T11:34:47.092Z,7.47
2017-11-23T11:37:14.565Z,6.63
2017-11-23T11:39:42.022Z,6.90
2017-11-23T11:42:09.636Z,7.70
2017-11-23T11:44:37.081Z,8.17
2017-11-23T11:47:04.541Z,15.07
2017-11-23T11:49:31.988Z,6.60
2017-11-23T11:51:59.447Z,20.43
2017-11-23T11:54:26.953Z,5.87
2017-11-23T11:56:55.201Z,6.27
2017-11-23T11:59:26.924Z,5.93
2017-11-23T12:01:55.151Z,5.07
2017-11-23T12:04:22.603Z,4.67
2017-11-23T12:06:50.046Z,5.03
2017-11-23T12:09:17.520Z,4.80
2017-11-23T12:11:44.953Z,5.00
2017-11-23T12:14:24.198Z,4.00
2017-11-23T12:17:03.693Z,4.50
2017-11-23T12:19:42.880Z,4.30
2017-11-23T12:22:22.165Z,5.00
2017-11-23T12:25:01.662Z,4.50
2017-11-23T12:27:40.814Z,3.87
2017-11-23T12:30:12.277Z,4.53
2017-11-23T12:32:39.733Z,4.53
2017-11-23T12:35:07.961Z,3.50
2017-11-23T12:37:35.417Z,3.50
2017-11-23T12:40:02.882Z,3.10
2017-11-23T12:42:30.317Z,2.93
2017-11-23T12:44:57.772Z,3.80
2017-11-23T12:47:25.216Z,3.60
2017-11-23T12:49:52.667Z,3.17
2017-11-23T12:52:21.029Z,4.13
2017-11-23T12:54:48.469Z,3.37
2017-11-23T12:57:15.933Z,3.20
2017-11-23T12:59:43.405Z,4.03
2017-11-23T13:02:11.618Z,3.27
2017-11-23T13:04:39.058Z,4.13
2017-11-23T13:07:07.285Z,3.77
2017-11-23T13:09:34.722Z,3.20
2017-11-23T13:12:03.053Z,3.17
2017-11-23T13:17:16.356Z,3.00
2017-11-23T13:19:43.821Z,3.60
2017-11-23T13:22:11.910Z,3.30
2017-11-23T13:24:39.359Z,3.27
2017-11-23T13:27:06.817Z,3.00
2017-11-23T13:29:34.298Z,3.40
2017-11-23T13:32:01.738Z,3.50
2017-11-23T13:34:29.201Z,2.87
2017-11-23T13:36:56.693Z,3.27
2017-11-23T13:39:24.109Z,3.03
2017-11-23T13:41:51.564Z,3.20
2017-11-23T13:44:19.052Z,2.97
2017-11-23T13:46:46.541Z,3.47
2017-11-23T13:49:14.047Z,2.97
2017-11-23T13:51:41.493Z,2.80
2017-11-23T13:54:08.957Z,3.37
2017-11-23T13:56:37.362Z,2.63
2017-11-23T13:59:04.818Z,3.30
2017-11-23T14:01:32.245Z,2.87
2017-11-23T14:03:59.716Z,3.07
2017-11-23T14:06:27.156Z,3.10
2017-11-23T14:08:54.613Z,3.00
2017-11-23T14:11:22.084Z,3.27
2017-11-23T14:13:49.531Z,3.10
2017-11-23T14:16:17.767Z,3.70
2017-11-23T14:18:45.212Z,3.03
2017-11-23T14:21:13.475Z,3.33
2017-11-23T14:23:40.937Z,3.13
2017-11-23T14:26:08.386Z,3.23
2017-11-23T14:28:35.852Z,3.10
2017-11-23T14:31:03.285Z,3.00
2017-11-23T14:33:31.518Z,3.30
2017-11-23T14:35:58.990Z,3.03
2017-11-23T14:38:26.454Z,3.40
2017-11-23T14:40:53.940Z,3.07
2017-11-23T14:43:21.446Z,3.23
2017-11-23T14:45:48.912Z,3.37
2017-11-23T14:48:16.359Z,4.00
2017-11-23T14:50:43.863Z,3.20
2017-11-23T14:53:11.419Z,3.60
2017-11-23T14:55:38.893Z,3.57
2017-11-23T14:58:06.334Z,3.03
2017-11-23T15:00:34.583Z,3.53
2017-11-23T15:03:02.022Z,3.13
2017-11-23T15:05:29.484Z,3.17
2017-11-23T15:07:57.691Z,3.03
2017-11-23T15:10:25.182Z,2.50
2017-11-23T15:12:52.653Z,3.20
2017-11-23T15:15:20.109Z,3.07
2017-11-23T15:17:48.332Z,3.20
2017-11-23T15:20:15.789Z,2.73
2017-11-23T15:22:43.249Z,3.00
2017-11-23T15:25:11.466Z,4.47
2017-11-23T15:27:38.963Z,3.00
2017-11-23T15:30:06.422Z,3.13
2017-11-23T15:32:33.865Z,2.77
2017-11-23T15:35:02.093Z,3.30
2017-11-23T15:37:29.548Z,2.90
2017-11-23T15:39:57.059Z,3.03
2017-11-23T15:42:25.317Z,2.67
2017-11-23T15:44:52.800Z,2.60
2017-11-23T15:47:20.246Z,4.40
2017-11-23T15:49:48.473Z,3.20
2017-11-23T15:52:15.936Z,3.47
2017-11-23T15:54:43.394Z,2.83
2017-11-23T15:57:11.637Z,2.80
2017-11-23T15:59:39.595Z,4.00
2017-11-23T16:02:07.095Z,3.53
2017-11-23T16:04:35.037Z,3.00
2017-11-23T16:07:02.514Z,4.07
2017-11-23T16:09:29.949Z,3.13
2017-11-23T16:11:57.397Z,2.87
2017-11-23T16:14:24.921Z,3.40
2017-11-23T16:16:53.261Z,2.80
2017-11-23T16:19:20.765Z,2.97
2017-11-23T16:21:48.322Z,3.10
2017-11-23T16:24:15.785Z,2.80
2017-11-23T16:26:43.448Z,3.37
2017-11-23T16:29:11.708Z,2.97
2017-11-23T16:31:39.157Z,2.80
2017-11-23T16:34:06.602Z,3.30
2017-11-23T16:36:40.441Z,3.50
2017-11-23T16:39:12.207Z,2.97
2017-11-23T16:41:42.101Z,3.10
2017-11-23T16:44:15.937Z,3.00
2017-11-23T16:46:50.964Z,2.20
2017-11-23T16:49:24.845Z,3.17
2017-11-23T16:51:59.029Z,3.27
2017-11-23T16:54:32.157Z,3.90
2017-11-23T16:57:15.432Z,3.30
2017-11-23T16:59:48.464Z,2.93
2017-11-23T17:02:22.452Z,2.80
2017-11-23T17:04:55.627Z,3.77
2017-11-23T17:07:28.851Z,2.90
2017-11-23T17:10:00.185Z,2.73
2017-11-23T17:12:40.318Z,2.70
2017-11-23T17:15:14.552Z,2.53
2017-11-23T17:17:48.504Z,3.50
2017-11-23T17:20:15.975Z,3.20
2017-11-23T17:22:44.181Z,3.57
2017-11-23T17:25:11.641Z,3.50
2017-11-23T17:27:39.094Z,3.57
2017-11-23T17:30:07.326Z,3.23
2017-11-23T17:32:34.776Z,3.20
2017-11-23T17:35:02.257Z,3.63
2017-11-23T17:37:29.735Z,3.57
2017-11-23T17:39:57.194Z,3.13
2017-11-23T17:42:37.516Z,3.20
2017-11-23T17:45:06.597Z,3.50
2017-11-23T17:47:34.092Z,2.97
2017-11-23T17:50:01.553Z,3.40
2017-11-23T17:52:29.112Z,3.23
2017-11-23T17:54:57.311Z,4.07
2017-11-23T17:57:24.767Z,3.13
2017-11-23T17:59:52.978Z,3.20
2017-11-23T18:02:20.446Z,3.07
2017-11-23T18:04:48.704Z,3.50
2017-11-23T18:07:16.263Z,3.33
2017-11-23T18:09:43.800Z,3.80
2017-11-23T18:12:11.261Z,3.33
2017-11-23T18:14:38.704Z,3.40
2017-11-23T18:17:06.180Z,3.80
2017-11-23T18:19:33.617Z,3.30
2017-11-23T18:22:01.150Z,2.80
2017-11-23T18:24:29.364Z,3.73
2017-11-23T18:26:56.815Z,3.57
2017-11-23T18:29:25.018Z,2.97
2017-11-23T18:31:52.466Z,3.20
2017-11-23T18:34:19.925Z,3.93
2017-11-23T18:36:47.380Z,3.23
2017-11-23T18:39:14.973Z,3.20
2017-11-23T18:41:42.507Z,3.47
2017-11-23T18:44:09.978Z,3.67
2017-11-23T18:46:38.290Z,3.87
2017-11-23T18:49:05.764Z,3.37
2017-11-23T18:51:33.276Z,3.20
2017-11-23T18:54:00.725Z,3.40
2017-11-23T18:56:28.205Z,3.87
2017-11-23T18:58:55.664Z,3.50
2017-11-23T19:01:23.119Z,3.73
2017-11-23T19:03:50.557Z,3.13
2017-11-23T19:06:18.034Z,3.90
2017-11-23T19:08:45.501Z,3.70
2017-11-23T19:11:13.535Z,3.57
2017-11-23T19:13:41.740Z,3.13
2017-11-23T19:16:09.182Z,3.50
2017-11-23T19:18:37.391Z,3.77
2017-11-23T19:21:04.884Z,3.80
2017-11-23T19:23:33.159Z,4.97
2017-11-23T19:26:00.636Z,3.30
2017-11-23T19:28:28.075Z,4.40
2017-11-23T19:30:55.549Z,3.10
2017-11-23T19:33:23.002Z,3.70
2017-11-23T19:35:50.474Z,4.10
2017-11-23T19:38:18.670Z,4.23
2017-11-23T19:40:46.106Z,3.33
2017-11-23T19:43:13.576Z,4.57
2017-11-23T19:45:41.780Z,4.00
2017-11-23T19:48:09.314Z,4.20
2017-11-23T19:50:36.769Z,4.80
2017-11-23T19:53:04.236Z,3.97
2017-11-23T19:55:31.735Z,4.00
2017-11-23T19:57:59.299Z,4.90
2017-11-23T20:00:26.805Z,3.53
2017-11-23T20:02:55.034Z,4.20
2017-11-23T20:05:22.473Z,4.10
2017-11-23T20:07:50.734Z,4.13
2017-11-23T20:10:18.214Z,4.13
2017-11-23T20:12:45.745Z,3.90
2017-11-23T20:15:13.215Z,3.93
2017-11-23T20:17:40.681Z,4.80
2017-11-23T20:20:08.137Z,4.13
2017-11-23T20:22:36.350Z,3.70
2017-11-23T20:25:03.849Z,4.27
2017-11-23T20:27:31.505Z,5.13
2017-11-23T20:29:59.728Z,3.73
2017-11-23T20:32:27.206Z,4.50
2017-11-23T20:34:55.414Z,4.30
2017-11-23T20:37:22.895Z,5.30
2017-11-23T20:39:50.349Z,3.87
2017-11-23T20:42:17.795Z,5.00
2017-11-23T20:44:45.288Z,4.07
2017-11-23T20:47:12.722Z,4.20
2017-11-23T20:49:41.026Z,5.10
2017-11-23T20:52:08.509Z,4.67
2017-11-23T20:54:36.721Z,4.47
2017-11-23T20:57:04.172Z,4.50
2017-11-23T20:59:31.636Z,4.13
2017-11-23T21:01:59.906Z,3.60
2017-11-23T21:04:27.377Z,3.80
2017-11-23T21:06:54.831Z,4.00
2017-11-23T21:09:22.270Z,4.30
2017-11-23T21:11:49.742Z,4.63
2017-11-23T21:14:17.181Z,4.10
2017-11-23T21:16:49.841Z,4.20
2017-11-23T21:19:17.305Z,4.33
2017-11-23T21:21:44.845Z,3.67
2017-11-23T21:24:13.038Z,3.53
2017-11-23T21:26:41.268Z,3.70
2017-11-23T21:29:08.721Z,3.60
2017-11-23T21:31:36.158Z,3.60
2017-11-23T21:34:03.620Z,3.90
2017-11-23T21:36:31.054Z,4.10
2017-11-23T21:38:58.510Z,3.93
2017-11-23T21:41:26.100Z,4.23
2017-11-23T21:43:53.542Z,4.60
2017-11-23T21:46:21.794Z,3.80
2017-11-23T21:48:49.262Z,4.70
2017-11-23T21:51:17.611Z,4.00
2017-11-23T21:53:45.093Z,4.97
2017-11-23T21:56:13.362Z,4.30
2017-11-23T21:58:40.918Z,4.07
2017-11-23T22:01:08.441Z,4.23
2017-11-23T22:03:35.917Z,4.27
2017-11-23T22:06:04.127Z,4.93
2017-11-23T22:08:31.592Z,4.30
2017-11-23T22:10:59.056Z,5.27
2017-11-23T22:13:27.285Z,3.70
2017-11-23T22:15:55.522Z,4.87
2017-11-23T22:18:23.731Z,3.80
2017-11-23T22:20:52.028Z,4.73
2017-11-23T22:23:20.624Z,4.93
2017-11-23T22:25:49.240Z,4.30
2017-11-23T22:28:17.441Z,4.13
2017-11-23T22:30:45.210Z,4.47
2017-11-23T22:33:12.797Z,4.67
2017-11-23T22:35:40.302Z,4.63
2017-11-23T22:38:07.834Z,4.77
2017-11-23T22:40:40.196Z,4.40
2017-11-23T22:43:08.614Z,3.60
2017-11-23T22:45:40.690Z,4.75
2017-11-23T22:48:08.913Z,5.00
2017-11-23T22:50:37.357Z,4.70
2017-11-23T22:53:04.820Z,4.90
2017-11-23T22:55:36.962Z,4.60
2017-11-23T22:58:04.464Z,4.40
2017-11-23T23:00:31.964Z,5.07
2017-11-23T23:02:59.429Z,4.53
2017-11-23T23:05:27.164Z,4.30
2017-11-23T23:07:54.636Z,4.00
2017-11-23T23:10:22.073Z,4.27
2017-11-23T23:12:49.864Z,4.17
2017-11-23T23:25:06.941Z,4.78
2017-11-23T23:27:35.152Z,4.75
2017-11-23T23:30:02.618Z,4.47
2017-11-23T23:32:30.118Z,4.07
2017-11-23T23:34:57.712Z,3.90
2017-11-23T23:37:25.156Z,4.80
2017-11-23T23:39:53.047Z,5.27
2017-11-23T23:42:21.469Z,4.30
2017-11-23T23:44:48.950Z,4.12
2017-11-23T23:47:16.694Z,4.00
2017-11-23T23:49:44.169Z,4.20
2017-11-23T23:52:12.667Z,4.05
2017-11-23T23:54:40.893Z,4.68
2017-11-23T23:57:08.716Z,4.50
2017-11-23T23:59:38.973Z,4.27
